sensor_id;sensor_type;location;lat;lon;timestamp;temperature;humidity
22224;DHT22;11281;52.194;21.006;2022-09-01T00:01:23;9.70;99.90
22224;DHT22;11281;52.194;21.006;2022-09-01T00:05:47;9.70;99.90
22224;DHT22;11281;52.194;21.006;2022-09-01T00:10:11;9.60;99.90
22224;DHT22;11281;52.194;21.006;2022-09-01T00:14:37;9.50;99.90
22224;DHT22;11281;52.194;21.006;2022-09-01T00:18:59;9.40;99.90
22224;DHT22;11281;52.194;21.006;2022-09-01T00:23:21;9.40;99.90
22224;DHT22;11281;52.194;21.006;2022-09-01T00:27:43;9.50;99.90
22224;DHT22;11281;52.194;21.006;2022-09-01T00:32:05;9.40;99.90
22224;DHT22;11281;52.194;21.006;2022-09-01T00:36:27;9.40;99.90
22224;DHT22;11281;52.194;21.006;2022-09-01T00:40:49;9.30;99.90
22224;DHT22;11281;52.194;21.006;2022-09-01T00:45:11;9.20;99.90
22224;DHT22;11281;52.194;21.006;2022-09-01T00:49:45;9.10;99.90
22224;DHT22;11281;52.194;21.006;2022-09-01T00:54:12;9.10;99.90
22224;DHT22;11281;52.194;21.006;2022-09-01T00:58:37;9.00;99.90
22224;DHT22;11281;52.194;21.006;2022-09-01T01:02:59;8.90;99.90
22224;DHT22;11281;52.194;21.006;2022-09-01T01:07:22;8.90;99.90
22224;DHT22;11281;52.194;21.006;2022-09-01T01:11:44;8.80;99.90
22224;DHT22;11281;52.194;21.006;2022-09-01T01:16:07;8.70;99.90
22224;DHT22;11281;52.194;21.006;2022-09-01T01:20:32;8.60;99.90
22224;DHT22;11281;52.194;21.006;2022-09-01T01:25:13;8.50;99.90
22224;DHT22;11281;52.194;21.006;2022-09-01T01:29:36;8.40;99.90
22224;DHT22;11281;52.194;21.006;2022-09-01T01:34:00;8.50;99.90
22224;DHT22;11281;52.194;21.006;2022-09-01T01:38:23;8.40;99.90
22224;DHT22;11281;52.194;21.006;2022-09-01T01:42:48;8.40;99.90
22224;DHT22;11281;52.194;21.006;2022-09-01T01:47:12;8.30;99.90
22224;DHT22;11281;52.194;21.006;2022-09-01T01:51:34;8.20;99.90
22224;DHT22;11281;52.194;21.006;2022-09-01T01:55:57;8.20;99.90
22224;DHT22;11281;52.194;21.006;2022-09-01T02:00:24;8.10;99.90
22224;DHT22;11281;52.194;21.006;2022-09-01T02:04:48;8.10;99.90
22224;DHT22;11281;52.194;21.006;2022-09-01T02:09:11;8.00;99.90
22224;DHT22;11281;52.194;21.006;2022-09-01T02:13:34;8.00;99.90
22224;DHT22;11281;52.194;21.006;2022-09-01T02:17:56;7.90;99.90
22224;DHT22;11281;52.194;21.006;2022-09-01T02:22:20;7.90;99.90
22224;DHT22;11281;52.194;21.006;2022-09-01T02:26:43;7.80;99.90
22224;DHT22;11281;52.194;21.006;2022-09-01T02:31:10;7.70;99.90
22224;DHT22;11281;52.194;21.006;2022-09-01T02:35:32;7.80;99.90
22224;DHT22;11281;52.194;21.006;2022-09-01T02:39:54;7.70;99.90
22224;DHT22;11281;52.194;21.006;2022-09-01T02:44:20;7.60;99.90
22224;DHT22;11281;52.194;21.006;2022-09-01T02:48:43;7.60;99.90
22224;DHT22;11281;52.194;21.006;2022-09-01T02:53:07;7.70;99.90
22224;DHT22;11281;52.194;21.006;2022-09-01T02:57:35;7.70;99.90
22224;DHT22;11281;52.194;21.006;2022-09-01T03:01:57;7.80;99.90
22224;DHT22;11281;52.194;21.006;2022-09-01T03:06:19;7.80;99.90
22224;DHT22;11281;52.194;21.006;2022-09-01T03:10:43;7.70;99.90
22224;DHT22;11281;52.194;21.006;2022-09-01T03:15:07;7.50;99.90
22224;DHT22;11281;52.194;21.006;2022-09-01T03:19:29;7.50;99.90
22224;DHT22;11281;52.194;21.006;2022-09-01T03:23:54;7.50;99.90
22224;DHT22;11281;52.194;21.006;2022-09-01T03:28:18;7.50;99.90
22224;DHT22;11281;52.194;21.006;2022-09-01T03:32:40;7.50;99.90
22224;DHT22;11281;52.194;21.006;2022-09-01T03:37:02;7.40;99.90
22224;DHT22;11281;52.194;21.006;2022-09-01T03:41:28;7.40;99.90
22224;DHT22;11281;52.194;21.006;2022-09-01T03:45:51;7.40;99.90
22224;DHT22;11281;52.194;21.006;2022-09-01T03:50:16;7.50;99.90
22224;DHT22;11281;52.194;21.006;2022-09-01T03:54:43;7.50;99.90
22224;DHT22;11281;52.194;21.006;2022-09-01T03:59:06;7.70;99.90
22224;DHT22;11281;52.194;21.006;2022-09-01T04:03:31;7.70;99.90
22224;DHT22;11281;52.194;21.006;2022-09-01T04:07:56;7.70;99.90
22224;DHT22;11281;52.194;21.006;2022-09-01T04:12:21;7.70;99.90
22224;DHT22;11281;52.194;21.006;2022-09-01T04:16:46;7.80;99.90
22224;DHT22;11281;52.194;21.006;2022-09-01T04:21:26;7.80;99.90
22224;DHT22;11281;52.194;21.006;2022-09-01T04:26:01;7.80;99.90
22224;DHT22;11281;52.194;21.006;2022-09-01T04:30:37;7.90;99.90
22224;DHT22;11281;52.194;21.006;2022-09-01T04:35:01;8.00;99.90
22224;DHT22;11281;52.194;21.006;2022-09-01T04:39:22;8.10;99.90
22224;DHT22;11281;52.194;21.006;2022-09-01T04:43:45;8.20;99.90
22224;DHT22;11281;52.194;21.006;2022-09-01T04:48:08;8.50;99.90
22224;DHT22;11281;52.194;21.006;2022-09-01T04:52:29;8.60;99.90
22224;DHT22;11281;52.194;21.006;2022-09-01T04:56:52;8.80;99.90
22224;DHT22;11281;52.194;21.006;2022-09-01T05:01:18;8.90;99.90
22224;DHT22;11281;52.194;21.006;2022-09-01T05:05:43;9.10;99.90
22224;DHT22;11281;52.194;21.006;2022-09-01T05:10:06;9.40;99.90
22224;DHT22;11281;52.194;21.006;2022-09-01T05:14:28;9.70;99.90
22224;DHT22;11281;52.194;21.006;2022-09-01T05:18:51;9.90;99.90
22224;DHT22;11281;52.194;21.006;2022-09-01T05:23:14;10.00;99.90
22224;DHT22;11281;52.194;21.006;2022-09-01T05:27:41;9.90;99.90
22224;DHT22;11281;52.194;21.006;2022-09-01T05:32:09;10.20;99.90
22224;DHT22;11281;52.194;21.006;2022-09-01T05:36:32;10.40;99.90
22224;DHT22;11281;52.194;21.006;2022-09-01T05:40:58;10.70;99.90
22224;DHT22;11281;52.194;21.006;2022-09-01T05:45:24;11.00;99.90
22224;DHT22;11281;52.194;21.006;2022-09-01T05:49:47;10.90;99.90
22224;DHT22;11281;52.194;21.006;2022-09-01T05:54:10;11.20;99.90
22224;DHT22;11281;52.194;21.006;2022-09-01T05:58:33;11.30;99.90
22224;DHT22;11281;52.194;21.006;2022-09-01T06:02:55;11.60;99.90
22224;DHT22;11281;52.194;21.006;2022-09-01T06:07:18;11.60;99.90
22224;DHT22;11281;52.194;21.006;2022-09-01T06:11:40;11.70;99.90
22224;DHT22;11281;52.194;21.006;2022-09-01T06:16:02;11.90;99.90
22224;DHT22;11281;52.194;21.006;2022-09-01T06:20:25;12.10;99.90
22224;DHT22;11281;52.194;21.006;2022-09-01T06:24:47;12.60;99.90
22224;DHT22;11281;52.194;21.006;2022-09-01T06:29:12;12.50;99.90
22224;DHT22;11281;52.194;21.006;2022-09-01T06:33:35;13.20;99.90
22224;DHT22;11281;52.194;21.006;2022-09-01T06:37:57;14.60;99.90
22224;DHT22;11281;52.194;21.006;2022-09-01T06:42:19;14.90;99.90
22224;DHT22;11281;52.194;21.006;2022-09-01T06:46:43;14.70;99.90
22224;DHT22;11281;52.194;21.006;2022-09-01T06:51:05;15.40;99.90
22224;DHT22;11281;52.194;21.006;2022-09-01T06:55:29;15.80;99.90
22224;DHT22;11281;52.194;21.006;2022-09-01T06:59:54;16.20;99.90
22224;DHT22;11281;52.194;21.006;2022-09-01T07:04:16;16.40;99.90
22224;DHT22;11281;52.194;21.006;2022-09-01T07:08:41;16.40;99.90
22224;DHT22;11281;52.194;21.006;2022-09-01T07:13:12;16.40;99.90
22224;DHT22;11281;52.194;21.006;2022-09-01T07:17:41;16.50;99.90
22224;DHT22;11281;52.194;21.006;2022-09-01T07:22:09;15.80;99.90
22224;DHT22;11281;52.194;21.006;2022-09-01T07:26:32;16.30;99.90
22224;DHT22;11281;52.194;21.006;2022-09-01T07:30:55;16.50;99.90
22224;DHT22;11281;52.194;21.006;2022-09-01T07:35:19;17.30;99.90
22224;DHT22;11281;52.194;21.006;2022-09-01T07:39:42;17.30;99.90
22224;DHT22;11281;52.194;21.006;2022-09-01T07:44:08;16.50;99.90
22224;DHT22;11281;52.194;21.006;2022-09-01T07:48:33;16.70;99.90
22224;DHT22;11281;52.194;21.006;2022-09-01T07:52:55;16.70;99.90
22224;DHT22;11281;52.194;21.006;2022-09-01T07:57:16;16.60;99.90
22224;DHT22;11281;52.194;21.006;2022-09-01T08:01:38;16.50;99.90
22224;DHT22;11281;52.194;21.006;2022-09-01T08:06:06;17.10;99.90
22224;DHT22;11281;52.194;21.006;2022-09-01T08:10:29;16.60;99.90
22224;DHT22;11281;52.194;21.006;2022-09-01T08:14:52;16.60;99.90
22224;DHT22;11281;52.194;21.006;2022-09-01T08:19:13;17.10;99.90
22224;DHT22;11281;52.194;21.006;2022-09-01T08:23:35;17.10;99.90
22224;DHT22;11281;52.194;21.006;2022-09-01T08:27:58;17.40;99.90
22224;DHT22;11281;52.194;21.006;2022-09-01T08:32:20;17.20;99.90
22224;DHT22;11281;52.194;21.006;2022-09-01T08:36:42;17.10;99.90
22224;DHT22;11281;52.194;21.006;2022-09-01T08:41:12;17.50;99.90
22224;DHT22;11281;52.194;21.006;2022-09-01T08:45:47;17.60;99.90
22224;DHT22;11281;52.194;21.006;2022-09-01T08:50:11;17.20;99.90
22224;DHT22;11281;52.194;21.006;2022-09-01T08:54:54;17.50;99.90
22224;DHT22;11281;52.194;21.006;2022-09-01T08:59:18;17.60;99.90
22224;DHT22;11281;52.194;21.006;2022-09-01T09:03:50;17.60;99.90
22224;DHT22;11281;52.194;21.006;2022-09-01T09:22:52;17.90;99.90
22224;DHT22;11281;52.194;21.006;2022-09-01T09:27:33;17.20;99.90
22224;DHT22;11281;52.194;21.006;2022-09-01T09:32:08;17.10;99.90
22224;DHT22;11281;52.194;21.006;2022-09-01T09:36:34;17.60;99.90
22224;DHT22;11281;52.194;21.006;2022-09-01T09:41:04;17.80;99.90
22224;DHT22;11281;52.194;21.006;2022-09-01T09:45:38;18.20;99.90
22224;DHT22;11281;52.194;21.006;2022-09-01T09:50:28;18.70;99.90
22224;DHT22;11281;52.194;21.006;2022-09-01T09:55:17;18.30;99.90
22224;DHT22;11281;52.194;21.006;2022-09-01T09:59:56;18.30;99.90
22224;DHT22;11281;52.194;21.006;2022-09-01T10:04:36;18.30;99.90
22224;DHT22;11281;52.194;21.006;2022-09-01T10:09:03;18.40;99.90
22224;DHT22;11281;52.194;21.006;2022-09-01T10:13:27;17.80;99.90
22224;DHT22;11281;52.194;21.006;2022-09-01T10:17:54;18.00;99.90
22224;DHT22;11281;52.194;21.006;2022-09-01T10:22:22;18.70;99.90
22224;DHT22;11281;52.194;21.006;2022-09-01T10:26:48;18.50;99.90
22224;DHT22;11281;52.194;21.006;2022-09-01T10:31:13;18.60;99.90
22224;DHT22;11281;52.194;21.006;2022-09-01T10:35:44;18.10;99.90
22224;DHT22;11281;52.194;21.006;2022-09-01T10:40:33;19.00;99.90
22224;DHT22;11281;52.194;21.006;2022-09-01T10:44:58;18.30;99.90
22224;DHT22;11281;52.194;21.006;2022-09-01T10:53:51;18.40;99.50
22224;DHT22;11281;52.194;21.006;2022-09-01T11:07:42;19.90;94.60
22224;DHT22;11281;52.194;21.006;2022-09-01T11:12:30;18.90;92.70
22224;DHT22;11281;52.194;21.006;2022-09-01T11:17:25;18.40;95.10
22224;DHT22;11281;52.194;21.006;2022-09-01T11:26:53;17.70;97.30
22224;DHT22;11281;52.194;21.006;2022-09-01T11:31:28;18.50;94.70
22224;DHT22;11281;52.194;21.006;2022-09-01T11:36:03;18.90;93.70
22224;DHT22;11281;52.194;21.006;2022-09-01T11:40:54;18.80;91.30
22224;DHT22;11281;52.194;21.006;2022-09-01T11:45:20;18.60;92.80
22224;DHT22;11281;52.194;21.006;2022-09-01T11:49:51;18.60;91.70
22224;DHT22;11281;52.194;21.006;2022-09-01T11:54:15;18.80;90.60
22224;DHT22;11281;52.194;21.006;2022-09-01T11:58:38;18.70;93.10
22224;DHT22;11281;52.194;21.006;2022-09-01T12:03:00;19.50;91.10
22224;DHT22;11281;52.194;21.006;2022-09-01T12:07:41;19.60;90.20
22224;DHT22;11281;52.194;21.006;2022-09-01T12:12:07;19.20;90.00
22224;DHT22;11281;52.194;21.006;2022-09-01T12:17:01;18.70;93.20
22224;DHT22;11281;52.194;21.006;2022-09-01T12:26:21;18.60;93.70
22224;DHT22;11281;52.194;21.006;2022-09-01T12:30:50;18.70;93.70
22224;DHT22;11281;52.194;21.006;2022-09-01T12:35:22;19.20;92.40
22224;DHT22;11281;52.194;21.006;2022-09-01T12:39:53;18.90;92.60
22224;DHT22;11281;52.194;21.006;2022-09-01T12:49:16;19.50;90.60
22224;DHT22;11281;52.194;21.006;2022-09-01T12:53:39;18.90;90.60
22224;DHT22;11281;52.194;21.006;2022-09-01T12:58:06;18.30;92.30
22224;DHT22;11281;52.194;21.006;2022-09-01T13:02:35;17.80;94.50
22224;DHT22;11281;52.194;21.006;2022-09-01T13:07:06;18.20;94.90
22224;DHT22;11281;52.194;21.006;2022-09-01T13:11:28;18.70;94.30
22224;DHT22;11281;52.194;21.006;2022-09-01T13:15:53;18.90;91.60
22224;DHT22;11281;52.194;21.006;2022-09-01T13:20:17;19.00;90.40
22224;DHT22;11281;52.194;21.006;2022-09-01T13:24:39;19.20;89.20
22224;DHT22;11281;52.194;21.006;2022-09-01T13:29:00;19.20;85.00
22224;DHT22;11281;52.194;21.006;2022-09-01T13:33:22;19.30;89.90
22224;DHT22;11281;52.194;21.006;2022-09-01T13:37:44;18.70;92.00
22224;DHT22;11281;52.194;21.006;2022-09-01T13:42:06;18.90;90.60
22224;DHT22;11281;52.194;21.006;2022-09-01T13:46:28;19.10;91.00
22224;DHT22;11281;52.194;21.006;2022-09-01T13:50:51;18.90;88.70
22224;DHT22;11281;52.194;21.006;2022-09-01T13:55:16;18.70;87.30
22224;DHT22;11281;52.194;21.006;2022-09-01T13:59:40;18.90;90.30
22224;DHT22;11281;52.194;21.006;2022-09-01T14:04:02;19.00;90.30
22224;DHT22;11281;52.194;21.006;2022-09-01T14:08:26;19.20;90.60
22224;DHT22;11281;52.194;21.006;2022-09-01T14:12:49;19.20;87.50
22224;DHT22;11281;52.194;21.006;2022-09-01T14:17:11;19.30;85.50
22224;DHT22;11281;52.194;21.006;2022-09-01T14:21:32;19.20;87.10
22224;DHT22;11281;52.194;21.006;2022-09-01T14:25:54;19.50;83.10
22224;DHT22;11281;52.194;21.006;2022-09-01T14:30:20;19.20;87.10
22224;DHT22;11281;52.194;21.006;2022-09-01T14:34:43;18.90;85.00
22224;DHT22;11281;52.194;21.006;2022-09-01T14:39:05;18.70;90.10
22224;DHT22;11281;52.194;21.006;2022-09-01T14:43:27;18.40;91.10
22224;DHT22;11281;52.194;21.006;2022-09-01T14:47:52;18.60;89.30
22224;DHT22;11281;52.194;21.006;2022-09-01T14:52:15;18.90;89.50
22224;DHT22;11281;52.194;21.006;2022-09-01T14:56:37;18.90;89.00
22224;DHT22;11281;52.194;21.006;2022-09-01T15:01:00;18.90;87.10
22224;DHT22;11281;52.194;21.006;2022-09-01T15:05:22;18.90;92.00
22224;DHT22;11281;52.194;21.006;2022-09-01T15:09:44;18.80;88.60
22224;DHT22;11281;52.194;21.006;2022-09-01T15:14:06;18.80;89.70
22224;DHT22;11281;52.194;21.006;2022-09-01T15:18:29;18.70;88.50
22224;DHT22;11281;52.194;21.006;2022-09-01T15:22:51;18.60;88.10
22224;DHT22;11281;52.194;21.006;2022-09-01T15:27:13;18.40;89.80
22224;DHT22;11281;52.194;21.006;2022-09-01T15:31:35;18.40;90.20
22224;DHT22;11281;52.194;21.006;2022-09-01T15:35:57;18.20;90.90
22224;DHT22;11281;52.194;21.006;2022-09-01T15:40:19;18.20;89.50
22224;DHT22;11281;52.194;21.006;2022-09-01T15:44:41;18.10;92.00
22224;DHT22;11281;52.194;21.006;2022-09-01T15:49:06;18.00;89.50
22224;DHT22;11281;52.194;21.006;2022-09-01T15:53:29;17.90;90.10
22224;DHT22;11281;52.194;21.006;2022-09-01T15:57:51;17.80;88.70
22224;DHT22;11281;52.194;21.006;2022-09-01T16:02:15;17.80;91.30
22224;DHT22;11281;52.194;21.006;2022-09-01T16:06:38;17.70;90.10
22224;DHT22;11281;52.194;21.006;2022-09-01T16:11:00;17.70;92.10
22224;DHT22;11281;52.194;21.006;2022-09-01T16:15:24;17.60;91.60
22224;DHT22;11281;52.194;21.006;2022-09-01T16:20:08;17.60;90.30
22224;DHT22;11281;52.194;21.006;2022-09-01T16:24:49;17.50;91.00
22224;DHT22;11281;52.194;21.006;2022-09-01T16:29:41;17.30;92.60
22224;DHT22;11281;52.194;21.006;2022-09-01T16:34:12;17.20;92.70
22224;DHT22;11281;52.194;21.006;2022-09-01T16:44:18;16.90;94.10
22224;DHT22;11281;52.194;21.006;2022-09-01T16:49:07;16.70;97.10
22224;DHT22;11281;52.194;21.006;2022-09-01T16:54:17;16.40;97.50
22224;DHT22;11281;52.194;21.006;2022-09-01T16:58:55;16.20;99.40
22224;DHT22;11281;52.194;21.006;2022-09-01T17:03:40;15.80;99.90
22224;DHT22;11281;52.194;21.006;2022-09-01T17:08:18;15.50;99.90
22224;DHT22;11281;52.194;21.006;2022-09-01T17:12:48;15.20;99.90
22224;DHT22;11281;52.194;21.006;2022-09-01T17:17:22;15.20;99.90
22224;DHT22;11281;52.194;21.006;2022-09-01T17:22:06;15.00;99.90
22224;DHT22;11281;52.194;21.006;2022-09-01T17:26:31;14.70;99.90
22224;DHT22;11281;52.194;21.006;2022-09-01T17:30:59;14.10;99.90
22224;DHT22;11281;52.194;21.006;2022-09-01T17:44:45;13.40;99.90
22224;DHT22;11281;52.194;21.006;2022-09-01T18:12:17;12.10;99.90
22224;DHT22;11281;52.194;21.006;2022-09-01T18:17:02;11.80;99.90
22224;DHT22;11281;52.194;21.006;2022-09-01T18:21:31;11.70;99.90
22224;DHT22;11281;52.194;21.006;2022-09-01T18:26:08;11.60;99.90
22224;DHT22;11281;52.194;21.006;2022-09-01T19:04:37;10.80;99.90
22224;DHT22;11281;52.194;21.006;2022-09-01T19:09:12;10.60;99.90
22224;DHT22;11281;52.194;21.006;2022-09-01T19:14:05;10.60;99.90
22224;DHT22;11281;52.194;21.006;2022-09-01T19:23:10;10.40;99.90
22224;DHT22;11281;52.194;21.006;2022-09-01T19:27:35;10.30;99.90
22224;DHT22;11281;52.194;21.006;2022-09-01T19:32:01;10.10;99.90
22224;DHT22;11281;52.194;21.006;2022-09-01T19:36:45;10.00;99.90
22224;DHT22;11281;52.194;21.006;2022-09-01T19:41:25;9.90;99.90
22224;DHT22;11281;52.194;21.006;2022-09-01T19:50:56;9.80;99.90
22224;DHT22;11281;52.194;21.006;2022-09-01T19:55:38;9.70;99.90
22224;DHT22;11281;52.194;21.006;2022-09-01T20:04:52;9.50;99.90
22224;DHT22;11281;52.194;21.006;2022-09-01T20:09:33;9.50;99.90
22224;DHT22;11281;52.194;21.006;2022-09-01T20:18:50;9.30;99.90
22224;DHT22;11281;52.194;21.006;2022-09-01T20:23:32;9.30;99.90
22224;DHT22;11281;52.194;21.006;2022-09-01T20:28:06;9.20;99.90
22224;DHT22;11281;52.194;21.006;2022-09-01T20:32:59;9.10;99.90
22224;DHT22;11281;52.194;21.006;2022-09-01T20:37:42;9.10;99.90
22224;DHT22;11281;52.194;21.006;2022-09-01T20:47:12;9.00;99.90
22224;DHT22;11281;52.194;21.006;2022-09-01T21:06:01;8.60;99.90
22224;DHT22;11281;52.194;21.006;2022-09-01T21:24:17;8.60;99.90
22224;DHT22;11281;52.194;21.006;2022-09-01T21:28:38;8.70;99.90
22224;DHT22;11281;52.194;21.006;2022-09-01T21:33:00;8.70;99.90
22224;DHT22;11281;52.194;21.006;2022-09-01T21:37:24;8.60;99.90
22224;DHT22;11281;52.194;21.006;2022-09-01T21:41:47;8.60;99.90
22224;DHT22;11281;52.194;21.006;2022-09-01T21:46:09;8.40;99.90
22224;DHT22;11281;52.194;21.006;2022-09-01T21:50:34;8.40;99.90
22224;DHT22;11281;52.194;21.006;2022-09-01T21:54:56;8.20;99.90
22224;DHT22;11281;52.194;21.006;2022-09-01T21:59:18;8.20;99.90
22224;DHT22;11281;52.194;21.006;2022-09-01T22:03:40;8.10;99.90
22224;DHT22;11281;52.194;21.006;2022-09-01T22:08:02;8.00;99.90
22224;DHT22;11281;52.194;21.006;2022-09-01T22:12:24;8.00;99.90
22224;DHT22;11281;52.194;21.006;2022-09-01T22:16:47;8.00;99.90
22224;DHT22;11281;52.194;21.006;2022-09-01T22:21:10;7.90;99.90
22224;DHT22;11281;52.194;21.006;2022-09-01T22:25:32;7.80;99.90
22224;DHT22;11281;52.194;21.006;2022-09-01T22:29:55;7.70;99.90
22224;DHT22;11281;52.194;21.006;2022-09-01T22:34:16;7.80;99.90
22224;DHT22;11281;52.194;21.006;2022-09-01T22:38:38;8.00;99.90
22224;DHT22;11281;52.194;21.006;2022-09-01T22:43:00;8.00;99.90
22224;DHT22;11281;52.194;21.006;2022-09-01T22:47:22;8.20;99.90
22224;DHT22;11281;52.194;21.006;2022-09-01T22:51:44;8.20;99.90
22224;DHT22;11281;52.194;21.006;2022-09-01T22:56:26;8.20;99.90
22224;DHT22;11281;52.194;21.006;2022-09-01T23:00:52;8.20;99.90
22224;DHT22;11281;52.194;21.006;2022-09-01T23:05:15;8.10;99.90
22224;DHT22;11281;52.194;21.006;2022-09-01T23:09:38;8.00;99.90
22224;DHT22;11281;52.194;21.006;2022-09-01T23:14:00;7.80;99.90
22224;DHT22;11281;52.194;21.006;2022-09-01T23:18:24;7.70;99.90
22224;DHT22;11281;52.194;21.006;2022-09-01T23:22:46;7.70;99.90
22224;DHT22;11281;52.194;21.006;2022-09-01T23:27:08;7.70;99.90
22224;DHT22;11281;52.194;21.006;2022-09-01T23:31:32;7.60;99.90
22224;DHT22;11281;52.194;21.006;2022-09-01T23:35:57;7.50;99.90
22224;DHT22;11281;52.194;21.006;2022-09-01T23:40:19;7.40;99.90
22224;DHT22;11281;52.194;21.006;2022-09-01T23:44:41;7.40;99.90
22224;DHT22;11281;52.194;21.006;2022-09-01T23:49:03;7.30;99.90
22224;DHT22;11281;52.194;21.006;2022-09-01T23:53:30;7.40;99.90
22224;DHT22;11281;52.194;21.006;2022-09-01T23:57:52;7.40;99.90
